Time;durP1;ratioP1;P1;durP2;ratioP2;P2;SDS_P1;SDS_P2;PMS_P1;PMS_P2;Temp;Humidity;BMP_temperature;BMP_pressure;BME280_temperature;BME280_humidity;BME280_pressure;Samples;Min_cycle;Max_cycle;Signal;HPM_P1;HPM_P2
2023/06/21 00:01:18;;;;;;;5.85;2.53;;;29.80;99.90;;;;;;5124517;28;20015;-53
2023/06/21 00:03:45;;;;;;;5.43;2.80;;;29.70;99.90;;;;;;5125097;28;20319;-53
2023/06/21 00:06:13;;;;;;;5.28;2.33;;;29.70;99.90;;;;;;5124485;28;20030;-56
2023/06/21 00:08:39;;;;;;;7.25;2.85;;;29.70;99.90;;;;;;5124437;28;20065;-50
2023/06/21 00:11:06;;;;;;;35.47;19.88;;;29.80;99.90;;;;;;5124729;28;20050;-55
2023/06/21 00:13:32;;;;;;;41.28;22.30;;;30.00;99.90;;;;;;5124971;28;20060;-52
2023/06/21 00:15:58;;;;;;;26.73;15.48;;;30.00;99.90;;;;;;5124337;28;20024;-53
2023/06/21 00:18:25;;;;;;;22.30;10.02;;;30.00;99.90;;;;;;5124810;28;20039;-54
2023/06/21 00:20:51;;;;;;;14.77;6.88;;;29.90;99.90;;;;;;5124677;28;20034;-55
2023/06/21 00:23:18;;;;;;;14.52;7.13;;;29.90;99.90;;;;;;5124492;28;20375;-56
2023/06/21 00:25:44;;;;;;;13.73;6.68;;;29.90;99.90;;;;;;5122586;28;20049;-55
2023/06/21 00:28:11;;;;;;;16.88;7.47;;;30.00;99.90;;;;;;5122515;28;20090;-56
2023/06/21 00:30:37;;;;;;;29.85;27.02;;;30.00;99.90;;;;;;5122807;28;20023;-55
2023/06/21 00:33:04;;;;;;;16.75;10.10;;;29.90;99.90;;;;;;5122500;28;20024;-54
2023/06/21 00:35:31;;;;;;;11.13;6.60;;;29.90;99.90;;;;;;5122536;28;20031;-54
2023/06/21 00:38:13;;;;;;;11.38;5.90;;;29.90;99.90;;;;;;5122944;28;20352;-54
2023/06/21 00:40:40;;;;;;;9.82;7.60;;;29.80;99.90;;;;;;5123840;28;20032;-53
2023/06/21 00:43:08;;;;;;;12.45;6.70;;;29.80;99.90;;;;;;5124027;28;20012;-53
2023/06/21 00:45:39;;;;;;;9.80;5.38;;;29.80;99.90;;;;;;5123968;28;20103;-52
2023/06/21 00:48:06;;;;;;;10.63;4.88;;;29.80;99.90;;;;;;5125124;28;20033;-50
2023/06/21 00:50:33;;;;;;;7.20;4.13;;;29.80;99.90;;;;;;5128729;28;20242;-56
2023/06/21 00:53:00;;;;;;;7.03;3.58;;;29.80;99.90;;;;;;5128340;28;20032;-54
2023/06/21 00:55:26;;;;;;;5.40;3.58;;;29.80;99.90;;;;;;5128472;28;20030;-51
2023/06/21 00:57:53;;;;;;;5.32;3.05;;;29.80;99.90;;;;;;5128404;28;20050;-53
2023/06/21 01:00:24;;;;;;;6.32;3.17;;;29.70;99.90;;;;;;5127866;28;20067;-57
2023/06/21 01:02:59;;;;;;;7.22;2.80;;;29.70;99.90;;;;;;5128584;28;20015;-55
2023/06/21 01:05:30;;;;;;;4.97;2.60;;;29.60;99.90;;;;;;5128679;28;20031;-58
2023/06/21 01:08:15;;;;;;;5.38;3.00;;;29.60;99.90;;;;;;5128430;28;20019;-55
2023/06/21 01:10:52;;;;;;;5.82;2.97;;;29.60;99.90;;;;;;5128478;28;20207;-55
2023/06/21 01:13:53;;;;;;;4.35;2.40;;;29.60;99.90;;;;;;5128000;28;20020;-54
2023/06/21 01:16:23;;;;;;;3.92;2.72;;;29.60;99.90;;;;;;5128262;28;20453;-55
2023/06/21 01:18:53;;;;;;;4.57;2.50;;;29.50;99.90;;;;;;5128049;28;20016;-53
2023/06/21 01:21:25;;;;;;;3.33;2.40;;;29.60;99.90;;;;;;5128337;28;20036;-57
2023/06/21 01:24:15;;;;;;;2.67;2.13;;;29.50;99.90;;;;;;5128369;28;20220;-57
2023/06/21 01:27:00;;;;;;;21.27;19.23;;;29.50;99.90;;;;;;5128338;28;20080;-54
2023/06/21 01:29:34;;;;;;;9.73;6.20;;;29.50;99.90;;;;;;5128054;28;20016;-54
2023/06/21 01:32:05;;;;;;;12.52;5.00;;;29.50;99.90;;;;;;5128660;28;20034;-55
2023/06/21 01:34:32;;;;;;;27.13;6.15;;;29.50;99.90;;;;;;5128309;28;20330;-59
2023/06/21 01:37:00;;;;;;;43.08;7.28;;;29.50;99.90;;;;;;5128206;28;20036;-57
2023/06/21 01:39:28;;;;;;;39.70;6.70;;;29.40;99.90;;;;;;5127629;28;20028;-53
2023/06/21 01:41:55;;;;;;;47.88;7.47;;;29.50;99.90;;;;;;5128295;28;20091;-57
2023/06/21 01:44:22;;;;;;;40.03;6.57;;;29.60;99.90;;;;;;5128111;28;20028;-49
2023/06/21 01:46:51;;;;;;;33.03;6.47;;;29.70;99.90;;;;;;5127782;28;20051;-57
2023/06/21 01:49:19;;;;;;;24.83;4.97;;;29.60;99.90;;;;;;5127378;28;20121;-54
2023/06/21 01:51:46;;;;;;;27.77;4.75;;;29.70;99.90;;;;;;5127570;28;20046;-51
2023/06/21 01:54:20;;;;;;;18.63;4.18;;;29.70;99.90;;;;;;5127560;28;20031;-59
2023/06/21 01:56:51;;;;;;;16.67;4.63;;;29.70;99.90;;;;;;5128221;28;20215;-51
2023/06/21 01:59:18;;;;;;;13.30;3.72;;;29.70;99.90;;;;;;5127203;28;20047;-56
2023/06/21 02:01:57;;;;;;;8.63;3.75;;;29.80;99.90;;;;;;5128331;28;20068;-55
2023/06/21 02:04:26;;;;;;;7.95;3.67;;;29.70;99.90;;;;;;5127339;28;20023;-56
2023/06/21 02:06:54;;;;;;;9.80;3.50;;;29.70;99.90;;;;;;5128802;28;20026;-54
2023/06/21 02:09:22;;;;;;;8.82;3.10;;;29.80;99.90;;;;;;5127424;28;20019;-56
2023/06/21 02:11:52;;;;;;;10.00;3.35;;;29.70;99.90;;;;;;5127180;28;20038;-59
2023/06/21 02:14:20;;;;;;;7.95;3.70;;;29.70;99.90;;;;;;5127729;28;20031;-56
2023/06/21 02:16:48;;;;;;;11.52;6.97;;;29.80;99.90;;;;;;5127141;28;20095;-57
2023/06/21 02:19:14;;;;;;;9.25;4.95;;;29.80;99.90;;;;;;5126776;28;20251;-57
2023/06/21 02:21:41;;;;;;;8.93;6.05;;;29.80;99.90;;;;;;5126731;28;20234;-55
2023/06/21 02:24:07;;;;;;;10.55;5.90;;;29.90;99.90;;;;;;5127208;28;20035;-57
2023/06/21 02:26:34;;;;;;;8.30;5.03;;;29.90;99.90;;;;;;5126666;28;20095;-57
2023/06/21 02:29:00;;;;;;;6.25;4.55;;;29.80;99.90;;;;;;5126696;28;20304;-55
2023/06/21 02:31:27;;;;;;;10.45;4.40;;;29.80;99.90;;;;;;5125217;28;20039;-65
2023/06/21 02:33:53;;;;;;;7.35;4.40;;;29.80;99.90;;;;;;5117340;28;20043;-64
2023/06/21 02:36:20;;;;;;;8.25;4.22;;;29.60;99.90;;;;;;5103212;28;20030;-64
2023/06/21 02:38:46;;;;;;;8.55;3.83;;;29.50;99.90;;;;;;5126458;27;20307;-65
2023/06/21 02:41:36;;;;;;;7.28;3.60;;;29.50;99.90;;;;;;5127665;28;20311;-64
2023/06/21 02:44:03;;;;;;;7.60;3.58;;;29.50;99.90;;;;;;5126144;28;20207;-62
2023/06/21 02:46:31;;;;;;;4.82;3.75;;;29.60;99.90;;;;;;5126907;28;20024;-64
2023/06/21 02:48:57;;;;;;;5.75;3.60;;;29.60;99.90;;;;;;5125693;28;20024;-64
2023/06/21 02:54:11;;;;;;;6.28;3.40;;;29.80;99.90;;;;;;5044336;28;20038;-64
2023/06/21 02:56:38;;;;;;;7.57;3.95;;;29.80;99.90;;;;;;5112885;28;20035;-63
2023/06/21 02:59:05;;;;;;;5.00;3.38;;;29.80;99.90;;;;;;5106345;28;20052;-60
2023/06/21 03:01:33;;;;;;;8.27;3.55;;;29.90;99.90;;;;;;5124902;28;20133;-61
2023/06/21 03:04:00;;;;;;;7.45;3.90;;;29.90;99.90;;;;;;5125454;28;20091;-59
2023/06/21 03:06:29;;;;;;;4.57;3.75;;;30.00;99.90;;;;;;5119411;28;20027;-64
2023/06/21 03:08:57;;;;;;;6.88;4.30;;;30.00;99.90;;;;;;5125743;28;20212;-64
2023/06/21 03:11:24;;;;;;;6.75;4.50;;;30.10;99.90;;;;;;5122756;28;20027;-66
2023/06/21 03:13:51;;;;;;;6.75;4.15;;;30.10;99.90;;;;;;5130632;27;20027;-63
2023/06/21 03:16:17;;;;;;;5.20;4.22;;;30.20;99.90;;;;;;5131614;27;20086;-63
2023/06/21 03:18:44;;;;;;;7.45;4.28;;;30.40;99.90;;;;;;5124384;27;20103;-63
2023/06/21 03:21:11;;;;;;;7.63;5.25;;;30.50;99.90;;;;;;5123600;28;20019;-64
2023/06/21 03:23:38;;;;;;;6.53;4.63;;;30.60;99.90;;;;;;5123391;28;20049;-63
2023/06/21 03:26:04;;;;;;;6.43;5.10;;;30.60;99.90;;;;;;5125688;28;20034;-60
2023/06/21 03:28:31;;;;;;;9.98;4.63;;;30.60;99.90;;;;;;5125528;28;20019;-64
2023/06/21 03:30:58;;;;;;;5.13;4.38;;;30.50;99.90;;;;;;5125522;28;20083;-63
2023/06/21 03:33:25;;;;;;;8.90;4.82;;;30.50;99.90;;;;;;5115054;28;20039;-63
2023/06/21 03:35:51;;;;;;;8.55;4.38;;;30.40;99.90;;;;;;5125631;28;20032;-62
2023/06/21 03:38:18;;;;;;;8.85;4.78;;;30.40;99.90;;;;;;5125031;28;20091;-63
2023/06/21 03:40:45;;;;;;;5.65;4.00;;;30.50;99.90;;;;;;5125103;28;20058;-60
2023/06/21 03:43:13;;;;;;;5.85;3.70;;;30.30;99.90;;;;;;5129782;27;20030;-60
2023/06/21 03:45:40;;;;;;;8.40;3.60;;;30.30;99.90;;;;;;5125381;28;20026;-63
2023/06/21 03:48:07;;;;;;;6.97;3.83;;;30.20;99.90;;;;;;5124670;28;20047;-63
2023/06/21 03:50:33;;;;;;;3.85;3.40;;;30.20;99.90;;;;;;5124894;28;20016;-64
2023/06/21 03:53:00;;;;;;;7.93;3.65;;;30.20;99.90;;;;;;5121852;28;20019;-62
2023/06/21 03:55:26;;;;;;;10.13;3.60;;;30.10;99.90;;;;;;5124832;28;20035;-63
2023/06/21 03:57:53;;;;;;;6.57;3.42;;;30.10;99.90;;;;;;5124981;28;20142;-62
2023/06/21 04:00:20;;;;;;;9.60;3.40;;;30.00;99.90;;;;;;5124606;28;20092;-64
2023/06/21 04:02:47;;;;;;;5.25;3.00;;;30.00;99.90;;;;;;5124220;28;20019;-66
2023/06/21 04:05:13;;;;;;;7.72;3.22;;;29.90;99.90;;;;;;5119290;28;20015;-60
2023/06/21 04:07:40;;;;;;;6.30;3.00;;;29.80;99.90;;;;;;5124176;28;20024;-63
2023/06/21 04:10:12;;;;;;;3.60;2.80;;;29.70;99.90;;;;;;5124798;28;20023;-64
2023/06/21 04:12:39;;;;;;;7.53;3.22;;;29.70;99.90;;;;;;5125071;28;20043;-64
2023/06/21 04:15:08;;;;;;;6.78;3.17;;;29.70;99.90;;;;;;5122662;28;20045;-64
2023/06/21 04:17:35;;;;;;;6.40;3.15;;;29.70;99.90;;;;;;5124745;28;20049;-64
2023/06/21 04:20:07;;;;;;;7.00;2.85;;;29.60;99.90;;;;;;5124344;28;20015;-62
2023/06/21 04:22:36;;;;;;;8.40;2.70;;;29.60;99.90;;;;;;5124320;28;20039;-63
2023/06/21 04:25:03;;;;;;;7.10;3.00;;;29.60;99.90;;;;;;5121896;28;20019;-61
2023/06/21 04:27:29;;;;;;;6.82;2.65;;;29.60;99.90;;;;;;5124151;28;20193;-60
2023/06/21 04:29:55;;;;;;;5.25;2.50;;;29.60;99.90;;;;;;5132712;28;20015;-61
2023/06/21 04:32:22;;;;;;;4.38;2.97;;;29.50;99.90;;;;;;5144781;28;20039;-64
2023/06/21 04:34:49;;;;;;;8.25;2.90;;;29.50;99.90;;;;;;5141330;28;20019;-63
2023/06/21 04:37:15;;;;;;;9.75;3.53;;;29.50;99.90;;;;;;5120678;28;20023;-62
2023/06/21 04:39:43;;;;;;;8.70;3.30;;;29.50;99.90;;;;;;5104503;28;20027;-62
2023/06/21 04:42:09;;;;;;;6.25;3.05;;;29.50;99.90;;;;;;5121965;28;20038;-67
2023/06/21 04:44:36;;;;;;;5.70;2.78;;;29.40;99.90;;;;;;5124410;28;20020;-62
2023/06/21 04:47:02;;;;;;;9.13;3.17;;;29.40;99.90;;;;;;5120763;28;20054;-62
2023/06/21 04:49:30;;;;;;;11.32;2.95;;;29.40;99.90;;;;;;5124089;28;20086;-63
2023/06/21 04:51:58;;;;;;;9.40;2.95;;;29.40;99.90;;;;;;5123709;28;20047;-65
2023/06/21 04:54:29;;;;;;;4.95;2.60;;;29.50;99.90;;;;;;5123100;28;20031;-65
2023/06/21 04:56:55;;;;;;;7.65;3.13;;;29.40;99.90;;;;;;5124275;28;20036;-62
2023/06/21 04:59:22;;;;;;;6.55;2.80;;;29.30;99.90;;;;;;5123936;28;20163;-60
2023/06/21 05:01:48;;;;;;;4.72;2.53;;;29.30;99.90;;;;;;5123828;28;20052;-60
2023/06/21 05:04:15;;;;;;;6.55;2.78;;;29.30;99.90;;;;;;5123635;28;20065;-63
2023/06/21 05:06:41;;;;;;;7.25;2.90;;;29.20;99.90;;;;;;5124104;28;20087;-62
2023/06/21 05:09:11;;;;;;;6.57;2.60;;;29.20;99.90;;;;;;5123762;28;20024;-63
2023/06/21 05:11:37;;;;;;;8.00;2.92;;;29.20;99.90;;;;;;5121200;28;20244;-64
2023/06/21 05:14:04;;;;;;;8.27;2.88;;;29.20;99.90;;;;;;5115618;28;20082;-64
2023/06/21 05:16:31;;;;;;;5.32;2.47;;;29.10;99.90;;;;;;5124138;28;20039;-64
2023/06/21 05:18:57;;;;;;;5.10;2.40;;;29.00;99.90;;;;;;5124142;28;20028;-62
2023/06/21 05:21:24;;;;;;;7.18;2.70;;;29.10;99.90;;;;;;5124303;28;20357;-65
2023/06/21 05:23:50;;;;;;;5.07;2.45;;;29.00;99.90;;;;;;5123903;28;20223;-64
2023/06/21 05:26:17;;;;;;;5.10;2.60;;;29.10;99.90;;;;;;5124503;28;20082;-64
2023/06/21 05:28:43;;;;;;;8.00;2.80;;;29.10;99.90;;;;;;5123756;28;20216;-64
2023/06/21 05:31:10;;;;;;;6.43;2.70;;;29.00;99.90;;;;;;5124272;28;20051;-63
2023/06/21 05:33:36;;;;;;;5.72;2.60;;;29.00;99.90;;;;;;5123821;28;20038;-64
2023/06/21 05:36:03;;;;;;;6.25;2.60;;;29.00;99.90;;;;;;5127428;28;20031;-62
2023/06/21 05:38:29;;;;;;;5.05;2.30;;;29.00;99.90;;;;;;5127837;28;20342;-64
2023/06/21 05:40:57;;;;;;;5.38;2.35;;;29.00;99.90;;;;;;5127945;28;20035;-59
2023/06/21 05:43:23;;;;;;;6.65;2.60;;;28.90;99.90;;;;;;5127417;28;20020;-59
2023/06/21 05:45:50;;;;;;;6.10;2.30;;;28.90;99.90;;;;;;5128032;28;20094;-64
2023/06/21 05:48:17;;;;;;;10.88;2.40;;;28.90;99.90;;;;;;5127161;28;20031;-62
2023/06/21 05:50:44;;;;;;;6.35;2.10;;;28.90;99.90;;;;;;5126803;28;20034;-63
2023/06/21 05:53:10;;;;;;;6.80;2.63;;;28.90;99.90;;;;;;5127889;28;20028;-63
2023/06/21 05:55:37;;;;;;;5.85;2.63;;;28.90;99.90;;;;;;5128100;28;20031;-64
2023/06/21 05:58:06;;;;;;;7.80;2.60;;;29.00;99.90;;;;;;5128263;28;20402;-63
2023/06/21 06:00:32;;;;;;;4.50;2.50;;;29.00;99.90;;;;;;5127054;28;20047;-63
2023/06/21 06:02:59;;;;;;;5.22;2.45;;;29.00;99.90;;;;;;5127833;28;20017;-60
2023/06/21 06:05:25;;;;;;;7.55;2.72;;;29.00;99.90;;;;;;5126992;28;20091;-61
2023/06/21 06:07:52;;;;;;;6.00;2.42;;;29.00;99.90;;;;;;5127506;28;20035;-63
2023/06/21 06:10:18;;;;;;;4.93;2.45;;;29.10;99.90;;;;;;5127006;28;20031;-66
2023/06/21 06:12:45;;;;;;;7.00;2.22;;;29.20;99.90;;;;;;5127429;28;20181;-67
2023/06/21 06:15:11;;;;;;;5.15;2.70;;;29.20;99.90;;;;;;5126814;28;20346;-63
2023/06/21 06:17:38;;;;;;;4.03;2.47;;;29.30;99.90;;;;;;5108825;28;20310;-63
2023/06/21 06:20:06;;;;;;;5.22;2.97;;;29.20;99.90;;;;;;5126823;28;20020;-63
2023/06/21 06:22:35;;;;;;;6.53;2.40;;;29.20;99.90;;;;;;5126961;28;20024;-64
2023/06/21 06:25:02;;;;;;;5.82;2.38;;;29.20;99.90;;;;;;5126694;28;20023;-62
2023/06/21 06:27:29;;;;;;;6.90;2.45;;;29.30;99.90;;;;;;5126767;28;20022;-60
2023/06/21 06:29:57;;;;;;;4.38;2.20;;;29.30;99.90;;;;;;5126285;28;20102;-63
2023/06/21 06:32:32;;;;;;;5.22;2.63;;;29.20;99.90;;;;;;5127045;28;20019;-67
2023/06/21 06:34:58;;;;;;;5.80;2.67;;;29.10;99.90;;;;;;5126393;28;20234;-63
2023/06/21 06:37:25;;;;;;;5.47;2.83;;;29.30;99.90;;;;;;5126776;28;20031;-64
2023/06/21 06:39:54;;;;;;;6.00;2.60;;;29.30;99.90;;;;;;5126493;28;20022;-58
2023/06/21 06:42:20;;;;;;;5.20;2.50;;;29.30;99.90;;;;;;5126607;28;20086;-57
2023/06/21 06:44:47;;;;;;;6.63;2.58;;;29.30;99.90;;;;;;5126351;28;20034;-60
2023/06/21 06:47:14;;;;;;;6.40;2.60;;;29.40;99.90;;;;;;5125280;28;20015;-64
2023/06/21 06:49:43;;;;;;;5.85;2.60;;;29.40;99.90;;;;;;5126255;28;20027;-65
2023/06/21 06:52:15;;;;;;;7.15;2.65;;;29.40;99.90;;;;;;5126345;28;20077;-64
2023/06/21 06:54:42;;;;;;;9.50;2.85;;;29.30;99.90;;;;;;5126117;28;20023;-65
2023/06/21 06:57:08;;;;;;;9.20;2.60;;;29.40;99.90;;;;;;5126164;28;20039;-65
2023/06/21 06:59:35;;;;;;;7.75;2.60;;;29.40;99.90;;;;;;5126036;28;20055;-62
2023/06/21 07:02:01;;;;;;;5.05;2.53;;;29.30;99.90;;;;;;5126285;28;20030;-63
2023/06/21 07:04:28;;;;;;;6.80;2.45;;;29.30;99.90;;;;;;5125937;28;20042;-64
2023/06/21 07:06:57;;;;;;;7.13;2.30;;;29.30;99.90;;;;;;5126053;28;20019;-63
2023/06/21 07:09:24;;;;;;;5.68;2.47;;;29.40;99.90;;;;;;5126154;28;20027;-64
2023/06/21 07:11:51;;;;;;;9.70;2.45;;;29.30;99.90;;;;;;5125863;28;20038;-62
2023/06/21 07:14:18;;;;;;;7.50;2.03;;;29.40;99.90;;;;;;5125692;28;20041;-64
2023/06/21 07:16:48;;;;;;;7.25;2.47;;;29.40;99.90;;;;;;5125856;28;20023;-62
2023/06/21 07:19:15;;;;;;;6.63;2.75;;;29.40;99.90;;;;;;5125576;28;20036;-63
2023/06/21 07:21:41;;;;;;;4.70;2.47;;;29.40;99.90;;;;;;5125729;28;20222;-64
2023/06/21 07:24:08;;;;;;;5.65;2.55;;;29.40;99.90;;;;;;5125636;28;20016;-62
2023/06/21 07:26:34;;;;;;;9.50;2.53;;;29.30;99.90;;;;;;5125525;28;20015;-64
2023/06/21 07:29:01;;;;;;;6.40;2.13;;;29.40;99.90;;;;;;5107304;28;20077;-63
2023/06/21 07:31:27;;;;;;;5.47;2.03;;;29.30;99.90;;;;;;5125796;28;20322;-62
2023/06/21 07:33:57;;;;;;;5.90;2.30;;;29.40;99.90;;;;;;5125224;28;20035;-59
2023/06/21 07:36:23;;;;;;;5.32;2.35;;;29.40;99.90;;;;;;5125319;28;20304;-60
2023/06/21 07:38:50;;;;;;;6.88;1.95;;;29.30;99.90;;;;;;5125468;28;20031;-60
2023/06/21 07:41:17;;;;;;;7.57;2.00;;;29.20;99.90;;;;;;5124949;28;20031;-61
2023/06/21 07:43:43;;;;;;;5.20;1.88;;;29.30;99.90;;;;;;5125286;28;20019;-64
2023/06/21 07:46:10;;;;;;;5.47;2.05;;;29.20;99.90;;;;;;5125222;28;20133;-61
2023/06/21 07:48:38;;;;;;;10.65;2.60;;;29.20;99.90;;;;;;5124946;28;20068;-63
2023/06/21 07:51:05;;;;;;;7.90;2.30;;;29.10;99.90;;;;;;5124943;28;20020;-57
2023/06/21 07:53:31;;;;;;;6.28;2.25;;;29.10;99.90;;;;;;5125091;28;20031;-59
2023/06/21 07:56:01;;;;;;;12.45;2.28;;;29.00;99.90;;;;;;5124716;28;20028;-66
2023/06/21 07:58:28;;;;;;;5.53;2.17;;;29.10;99.90;;;;;;5124659;28;20034;-62
2023/06/21 08:00:55;;;;;;;6.88;2.25;;;29.10;99.90;;;;;;5124805;28;20323;-62
2023/06/21 08:03:21;;;;;;;8.10;2.30;;;29.20;99.90;;;;;;5125249;28;20185;-60
2023/06/21 08:05:47;;;;;;;8.68;2.30;;;29.20;99.90;;;;;;5125072;28;20019;-65
2023/06/21 08:08:17;;;;;;;5.57;1.95;;;29.20;99.90;;;;;;5125572;28;20027;-66
2023/06/21 08:10:44;;;;;;;11.25;2.38;;;29.30;99.90;;;;;;5124559;28;20032;-65
2023/06/21 08:13:10;;;;;;;6.70;1.95;;;29.20;99.90;;;;;;5125109;28;20099;-64
2023/06/21 08:15:37;;;;;;;5.78;2.00;;;29.20;99.90;;;;;;5124777;28;20038;-59
2023/06/21 08:18:03;;;;;;;6.90;1.83;;;29.20;99.90;;;;;;5124931;28;20032;-62
2023/06/21 08:20:30;;;;;;;6.18;2.15;;;29.30;99.90;;;;;;5124695;28;20080;-60
2023/06/21 08:22:56;;;;;;;7.25;1.98;;;29.30;99.90;;;;;;5125026;28;20081;-62
2023/06/21 08:25:22;;;;;;;3.47;1.90;;;29.30;99.90;;;;;;5124596;28;20042;-65
2023/06/21 08:27:49;;;;;;;5.88;2.00;;;29.20;99.90;;;;;;5124433;28;20020;-64
2023/06/21 08:30:21;;;;;;;8.13;2.17;;;29.30;99.90;;;;;;5124743;28;20043;-64
2023/06/21 08:32:48;;;;;;;8.90;2.10;;;29.20;99.90;;;;;;5124702;28;20035;-63
2023/06/21 08:35:14;;;;;;;7.40;1.80;;;29.30;99.90;;;;;;5124864;28;20065;-61
2023/06/21 08:37:41;;;;;;;6.65;2.35;;;29.20;99.90;;;;;;5125005;28;20069;-63
2023/06/21 08:40:08;;;;;;;5.75;2.10;;;29.30;99.90;;;;;;5124298;28;20106;-62
2023/06/21 08:42:35;;;;;;;8.88;1.90;;;29.30;99.90;;;;;;5124214;28;20062;-62
2023/06/21 08:49:04;;;;;;;8.23;2.00;;;29.30;99.90;;;;;;5106581;28;20019;-67
2023/06/21 08:55:03;;;;;;;4.65;1.80;;;29.20;99.90;;;;;;5104246;28;20038;-61
2023/06/21 08:57:35;;;;;;;12.98;2.50;;;29.20;99.90;;;;;;5103938;28;20032;-62
2023/06/21 09:00:04;;;;;;;6.60;2.10;;;29.20;99.90;;;;;;5103709;28;20061;-63
2023/06/21 09:02:55;;;;;;;9.38;2.40;;;29.20;99.90;;;;;;5103541;28;20090;-64
2023/06/21 09:05:33;;;;;;;4.90;2.08;;;29.20;99.90;;;;;;5104260;28;20368;-62
2023/06/21 09:08:01;;;;;;;5.50;2.00;;;29.20;99.90;;;;;;5103907;28;20016;-62
2023/06/21 09:10:29;;;;;;;7.43;1.98;;;29.20;99.90;;;;;;5106223;28;20044;-55
2023/06/21 09:12:59;;;;;;;5.97;1.77;;;29.30;99.90;;;;;;5107750;28;20083;-60
2023/06/21 09:15:26;;;;;;;6.10;2.05;;;29.30;99.90;;;;;;5108539;28;20030;-56
2023/06/21 09:17:56;;;;;;;7.95;2.13;;;29.30;99.90;;;;;;5107559;28;20058;-59
2023/06/21 09:20:28;;;;;;;6.85;2.30;;;29.30;99.90;;;;;;5107779;28;20051;-63
2023/06/21 09:22:59;;;;;;;5.70;2.22;;;29.30;99.90;;;;;;5108204;28;20020;-63
2023/06/21 09:25:26;;;;;;;10.67;2.30;;;29.20;99.90;;;;;;5107952;28;20028;-62
2023/06/21 09:27:54;;;;;;;7.30;2.10;;;29.30;99.90;;;;;;5107636;28;20069;-60
2023/06/21 09:30:22;;;;;;;6.05;2.20;;;29.30;99.90;;;;;;5107198;28;20069;-63
2023/06/21 09:32:49;;;;;;;5.53;2.10;;;29.30;99.90;;;;;;5107097;28;20050;-62
2023/06/21 09:35:16;;;;;;;6.18;2.30;;;29.30;99.90;;;;;;5107823;28;20358;-60
2023/06/21 09:37:43;;;;;;;8.82;2.15;;;29.40;99.90;;;;;;5107174;28;20258;-60
2023/06/21 09:40:12;;;;;;;8.13;2.63;;;29.40;99.90;;;;;;5107454;28;20312;-60
2023/06/21 09:42:42;;;;;;;10.00;2.40;;;29.30;99.90;;;;;;5107126;28;20087;-63
2023/06/21 09:45:12;;;;;;;10.25;2.42;;;29.40;99.90;;;;;;5107543;28;20032;-63
2023/06/21 09:47:42;;;;;;;11.90;2.55;;;29.30;99.90;;;;;;5106848;28;20343;-64
2023/06/21 09:50:10;;;;;;;7.63;2.03;;;29.40;99.90;;;;;;5107444;28;20032;-64
2023/06/21 09:52:37;;;;;;;10.05;2.60;;;29.30;99.90;;;;;;5107082;28;20367;-59
2023/06/21 09:55:03;;;;;;;7.30;2.50;;;29.40;99.90;;;;;;5107049;28;20039;-64
2023/06/21 09:57:31;;;;;;;10.10;2.33;;;29.40;99.90;;;;;;5107070;28;20130;-62
2023/06/21 10:00:05;;;;;;;4.32;2.15;;;29.30;99.90;;;;;;5106881;28;20270;-62
2023/06/21 10:02:39;;;;;;;6.85;1.88;;;29.30;99.90;;;;;;5106700;28;20036;-61
2023/06/21 10:05:15;;;;;;;8.95;2.35;;;29.40;99.90;;;;;;5107101;28;20027;-61
2023/06/21 10:07:45;;;;;;;6.22;2.38;;;29.40;99.90;;;;;;5110658;28;20342;-64
2023/06/21 10:10:13;;;;;;;8.07;2.10;;;29.40;99.90;;;;;;5126146;27;20090;-62
2023/06/21 10:12:57;;;;;;;7.28;2.40;;;29.40;99.90;;;;;;5124812;27;20039;-61
2023/06/21 10:15:24;;;;;;;9.20;2.65;;;29.40;99.90;;;;;;5120566;27;20243;-63
2023/06/21 10:17:52;;;;;;;11.90;3.00;;;29.40;99.90;;;;;;5126509;28;20323;-62
2023/06/21 10:20:22;;;;;;;7.95;3.65;;;29.40;99.90;;;;;;5126921;28;20087;-63
2023/06/21 10:22:51;;;;;;;10.02;3.20;;;29.30;99.90;;;;;;5125729;28;20354;-63
2023/06/21 10:25:20;;;;;;;7.00;3.30;;;29.30;99.90;;;;;;5127337;28;20304;-65
2023/06/21 10:27:49;;;;;;;10.10;3.22;;;29.40;99.90;;;;;;5126707;28;20028;-63
2023/06/21 10:30:20;;;;;;;10.77;3.28;;;29.40;99.90;;;;;;5127193;28;20054;-63
2023/06/21 10:32:52;;;;;;;11.30;2.70;;;29.50;99.90;;;;;;5126446;28;20039;-60
2023/06/21 10:35:21;;;;;;;6.67;2.67;;;29.40;99.90;;;;;;5127207;28;20091;-62
2023/06/21 10:38:24;;;;;;;7.07;2.33;;;29.40;99.90;;;;;;5126862;28;20083;-64
2023/06/21 10:40:53;;;;;;;9.50;2.50;;;29.40;99.90;;;;;;5092601;28;20044;-64
2023/06/21 10:43:21;;;;;;;5.22;2.10;;;29.50;99.90;;;;;;5126427;28;20016;-63
2023/06/21 10:45:49;;;;;;;5.05;2.30;;;29.50;99.90;;;;;;5126500;28;20262;-63
2023/06/21 10:48:16;;;;;;;10.27;2.70;;;29.50;99.90;;;;;;5124059;28;20224;-63
2023/06/21 10:50:43;;;;;;;15.65;2.70;;;29.50;99.90;;;;;;5117842;28;20054;-62
2023/06/21 10:53:11;;;;;;;9.98;2.88;;;29.50;99.90;;;;;;5126339;28;20031;-62
2023/06/21 10:55:41;;;;;;;6.93;2.60;;;29.50;99.90;;;;;;5126219;28;20023;-64
2023/06/21 10:58:08;;;;;;;8.68;2.72;;;29.50;99.90;;;;;;5125955;28;20086;-61
2023/06/21 11:00:35;;;;;;;4.25;2.67;;;29.40;99.90;;;;;;5125928;28;20092;-61
2023/06/21 11:03:02;;;;;;;6.93;2.67;;;29.40;99.90;;;;;;5126258;28;20039;-61
2023/06/21 11:05:30;;;;;;;6.63;2.60;;;29.50;99.90;;;;;;5125797;28;20023;-62
2023/06/21 11:08:04;;;;;;;6.28;2.63;;;29.50;99.90;;;;;;5126166;28;20047;-64
2023/06/21 11:10:50;;;;;;;5.70;2.65;;;29.50;99.90;;;;;;5125746;28;20057;-63
2023/06/21 11:13:33;;;;;;;8.15;2.35;;;29.50;99.90;;;;;;5125853;28;20080;-59
2023/06/21 11:16:11;;;;;;;8.30;2.75;;;29.50;99.90;;;;;;5125746;28;20034;-62
2023/06/21 11:18:37;;;;;;;10.27;2.85;;;29.50;99.90;;;;;;5125631;28;20031;-62
2023/06/21 11:21:07;;;;;;;9.23;2.38;;;29.50;99.90;;;;;;5125785;28;20042;-62
2023/06/21 11:23:49;;;;;;;8.52;2.40;;;29.50;99.90;;;;;;5125305;28;20242;-63
2023/06/21 11:26:18;;;;;;;12.65;2.75;;;29.60;99.90;;;;;;5125681;28;20030;-65
2023/06/21 11:28:48;;;;;;;8.23;2.63;;;29.60;99.90;;;;;;5125291;28;20023;-64
2023/06/21 11:31:16;;;;;;;4.85;2.40;;;29.60;99.90;;;;;;5125794;28;20098;-67
2023/06/21 11:33:57;;;;;;;9.40;2.80;;;29.50;99.90;;;;;;5125136;28;20106;-63
2023/06/21 11:36:32;;;;;;;5.78;3.00;;;29.50;99.90;;;;;;5125603;28;20035;-63
2023/06/21 11:39:04;;;;;;;7.70;3.50;;;29.60;99.90;;;;;;5125294;28;20024;-65
2023/06/21 11:41:44;;;;;;;8.93;3.50;;;29.50;99.90;;;;;;5125580;28;20080;-65
2023/06/21 11:44:40;;;;;;;6.85;2.88;;;29.60;99.90;;;;;;5125983;28;20045;-63
2023/06/21 11:47:16;;;;;;;8.52;3.25;;;29.50;99.90;;;;;;5105706;28;20046;-63
2023/06/21 11:50:16;;;;;;;5.78;3.03;;;29.50;99.90;;;;;;5126080;28;20019;-65
2023/06/21 11:52:43;;;;;;;7.22;2.80;;;29.50;99.90;;;;;;5125687;28;20089;-64
2023/06/21 11:55:13;;;;;;;4.78;2.88;;;29.50;99.90;;;;;;5125408;28;20127;-60
2023/06/21 11:57:44;;;;;;;10.80;3.30;;;29.50;99.90;;;;;;5125445;28;20070;-62
2023/06/21 12:00:11;;;;;;;8.02;3.10;;;29.40;99.90;;;;;;5124793;28;20090;-60
2023/06/21 12:02:38;;;;;;;5.30;2.90;;;29.50;99.90;;;;;;5124694;28;20035;-66
2023/06/21 12:05:05;;;;;;;7.90;3.40;;;29.50;99.90;;;;;;5111538;28;20031;-60
2023/06/21 12:07:34;;;;;;;5.38;2.60;;;29.50;99.90;;;;;;5124960;28;20315;-62
2023/06/21 12:10:01;;;;;;;7.55;3.47;;;29.40;99.90;;;;;;5125092;28;20215;-61
2023/06/21 12:12:27;;;;;;;5.78;3.40;;;29.50;99.90;;;;;;5124654;28;20398;-62
2023/06/21 12:14:57;;;;;;;7.78;3.08;;;29.50;99.90;;;;;;5124496;28;20032;-60
2023/06/21 12:17:25;;;;;;;6.60;2.92;;;29.40;99.90;;;;;;5124664;28;20030;-60
2023/06/21 12:20:02;;;;;;;7.15;3.45;;;29.50;99.90;;;;;;5124581;28;20032;-61
2023/06/21 12:22:28;;;;;;;6.88;2.97;;;29.50;99.90;;;;;;5124608;28;20028;-62
2023/06/21 12:24:55;;;;;;;6.43;3.17;;;29.50;99.90;;;;;;5124340;28;20032;-61
2023/06/21 12:27:21;;;;;;;6.30;3.10;;;29.60;99.90;;;;;;5124603;28;20031;-63
2023/06/21 12:29:50;;;;;;;7.57;3.10;;;29.60;99.90;;;;;;5124514;28;20022;-64
2023/06/21 12:32:20;;;;;;;6.90;2.92;;;29.60;99.90;;;;;;5124426;28;20042;-64
2023/06/21 12:34:48;;;;;;;7.32;3.33;;;29.60;99.90;;;;;;5123196;28;20031;-63
2023/06/21 12:37:20;;;;;;;3.78;2.75;;;29.60;99.90;;;;;;5124214;28;20030;-64
2023/06/21 12:39:50;;;;;;;;;;;29.60;99.90;;;;;;5124810;28;20024;-60
2023/06/21 12:42:19;;;;;;;7.22;3.30;;;29.70;99.90;;;;;;5124079;28;20158;-63
2023/06/21 12:44:46;;;;;;;5.95;3.40;;;29.60;99.90;;;;;;5125780;28;20342;-61
2023/06/21 12:47:14;;;;;;;5.28;2.95;;;29.60;99.90;;;;;;5128423;28;20035;-65
2023/06/21 12:49:49;;;;;;;4.13;2.70;;;29.60;99.90;;;;;;5128520;28;20007;-64
2023/06/21 12:52:15;;;;;;;4.97;2.83;;;29.60;99.90;;;;;;5128582;28;20036;-61
2023/06/21 12:54:57;;;;;;;7.80;3.13;;;29.60;99.90;;;;;;5128487;28;20030;-61
2023/06/21 12:57:36;;;;;;;4.47;3.15;;;29.50;99.90;;;;;;5128429;28;20035;-62
2023/06/21 13:00:04;;;;;;;6.72;3.40;;;29.50;99.90;;;;;;5128398;28;20048;-66
2023/06/21 13:02:30;;;;;;;5.47;3.22;;;29.50;99.90;;;;;;5128316;28;20069;-61
2023/06/21 13:04:57;;;;;;;5.28;2.90;;;29.50;99.90;;;;;;5128689;28;20184;-64